sensor_id;sensor_type;location;lat;lon;timestamp;temperature;humidity
22108;DHT22;11220;48.812;9.128;2023-04-06T00:00:13;17.90;62.20
22108;DHT22;11220;48.812;9.128;2023-04-06T00:02:39;17.80;62.00
22108;DHT22;11220;48.812;9.128;2023-04-06T00:05:05;17.80;62.00
22108;DHT22;11220;48.812;9.128;2023-04-06T00:07:31;17.80;62.00
22108;DHT22;11220;48.812;9.128;2023-04-06T00:09:58;17.80;62.10
22108;DHT22;11220;48.812;9.128;2023-04-06T00:12:24;17.80;62.00
22108;DHT22;11220;48.812;9.128;2023-04-06T00:14:49;17.80;62.10
22108;DHT22;11220;48.812;9.128;2023-04-06T00:17:15;17.80;62.10
22108;DHT22;11220;48.812;9.128;2023-04-06T00:19:41;17.80;62.10
22108;DHT22;11220;48.812;9.128;2023-04-06T00:22:06;17.80;63.10
22108;DHT22;11220;48.812;9.128;2023-04-06T00:24:32;17.80;62.10
22108;DHT22;11220;48.812;9.128;2023-04-06T00:26:57;17.80;62.10
22108;DHT22;11220;48.812;9.128;2023-04-06T00:29:23;17.70;62.10
22108;DHT22;11220;48.812;9.128;2023-04-06T00:31:48;17.70;62.10
22108;DHT22;11220;48.812;9.128;2023-04-06T00:34:14;17.70;62.10
22108;DHT22;11220;48.812;9.128;2023-04-06T00:36:41;17.70;62.10
22108;DHT22;11220;48.812;9.128;2023-04-06T00:39:06;17.70;62.20
22108;DHT22;11220;48.812;9.128;2023-04-06T00:41:32;17.70;62.20
22108;DHT22;11220;48.812;9.128;2023-04-06T00:43:58;17.60;62.00
22108;DHT22;11220;48.812;9.128;2023-04-06T00:46:23;17.70;62.20
22108;DHT22;11220;48.812;9.128;2023-04-06T00:48:49;17.70;62.20
22108;DHT22;11220;48.812;9.128;2023-04-06T00:51:14;17.60;62.00
22108;DHT22;11220;48.812;9.128;2023-04-06T00:53:40;17.60;62.10
22108;DHT22;11220;48.812;9.128;2023-04-06T00:56:06;17.60;62.10
22108;DHT22;11220;48.812;9.128;2023-04-06T00:58:31;17.60;62.20
22108;DHT22;11220;48.812;9.128;2023-04-06T01:00:57;17.60;62.10
22108;DHT22;11220;48.812;9.128;2023-04-06T01:03:23;17.60;62.10
22108;DHT22;11220;48.812;9.128;2023-04-06T01:05:49;17.60;62.10
22108;DHT22;11220;48.812;9.128;2023-04-06T01:08:14;17.60;62.10
22108;DHT22;11220;48.812;9.128;2023-04-06T01:10:40;17.60;62.10
22108;DHT22;11220;48.812;9.128;2023-04-06T01:13:05;17.50;62.10
22108;DHT22;11220;48.812;9.128;2023-04-06T01:15:32;17.50;62.10
22108;DHT22;11220;48.812;9.128;2023-04-06T01:17:58;17.50;62.20
22108;DHT22;11220;48.812;9.128;2023-04-06T01:20:24;17.50;62.20
22108;DHT22;11220;48.812;9.128;2023-04-06T01:22:49;17.50;62.20
22108;DHT22;11220;48.812;9.128;2023-04-06T01:25:15;17.50;62.20
22108;DHT22;11220;48.812;9.128;2023-04-06T01:27:41;17.50;62.20
22108;DHT22;11220;48.812;9.128;2023-04-06T01:30:07;17.50;62.20
22108;DHT22;11220;48.812;9.128;2023-04-06T01:32:32;17.40;62.20
22108;DHT22;11220;48.812;9.128;2023-04-06T01:34:58;17.50;62.30
22108;DHT22;11220;48.812;9.128;2023-04-06T01:37:23;17.50;62.30
22108;DHT22;11220;48.812;9.128;2023-04-06T01:39:49;17.50;62.20
22108;DHT22;11220;48.812;9.128;2023-04-06T01:42:15;17.50;62.30
22108;DHT22;11220;48.812;9.128;2023-04-06T01:44:40;17.50;62.30
22108;DHT22;11220;48.812;9.128;2023-04-06T01:47:06;17.40;62.20
22108;DHT22;11220;48.812;9.128;2023-04-06T01:49:31;17.40;62.20
22108;DHT22;11220;48.812;9.128;2023-04-06T01:51:57;17.40;62.20
22108;DHT22;11220;48.812;9.128;2023-04-06T01:54:22;17.40;62.20
22108;DHT22;11220;48.812;9.128;2023-04-06T01:56:48;17.40;63.20
22108;DHT22;11220;48.812;9.128;2023-04-06T01:59:15;17.40;62.20
22108;DHT22;11220;48.812;9.128;2023-04-06T02:01:41;17.40;62.30
22108;DHT22;11220;48.812;9.128;2023-04-06T02:04:06;17.40;62.30
22108;DHT22;11220;48.812;9.128;2023-04-06T02:06:32;17.40;62.20
22108;DHT22;11220;48.812;9.128;2023-04-06T02:08:57;17.30;62.10
22108;DHT22;11220;48.812;9.128;2023-04-06T02:11:23;17.30;62.10
22108;DHT22;11220;48.812;9.128;2023-04-06T02:13:48;17.30;62.20
22108;DHT22;11220;48.812;9.128;2023-04-06T02:16:14;17.30;62.10
22108;DHT22;11220;48.812;9.128;2023-04-06T02:18:41;17.30;62.10
22108;DHT22;11220;48.812;9.128;2023-04-06T02:21:06;17.30;62.20
22108;DHT22;11220;48.812;9.128;2023-04-06T02:23:32;17.30;62.10
22108;DHT22;11220;48.812;9.128;2023-04-06T02:25:57;17.30;62.10
22108;DHT22;11220;48.812;9.128;2023-04-06T02:28:23;17.30;62.10
22108;DHT22;11220;48.812;9.128;2023-04-06T02:30:48;17.30;62.10
22108;DHT22;11220;48.812;9.128;2023-04-06T02:33:14;17.30;62.10
22108;DHT22;11220;48.812;9.128;2023-04-06T02:35:40;17.30;62.00
22108;DHT22;11220;48.812;9.128;2023-04-06T02:38:05;17.30;62.00
22108;DHT22;11220;48.812;9.128;2023-04-06T02:40:31;17.20;62.00
22108;DHT22;11220;48.812;9.128;2023-04-06T02:42:56;17.20;62.00
22108;DHT22;11220;48.812;9.128;2023-04-06T02:45:22;17.20;62.00
22108;DHT22;11220;48.812;9.128;2023-04-06T02:47:47;17.20;62.00
22108;DHT22;11220;48.812;9.128;2023-04-06T02:50:13;17.20;61.90
22108;DHT22;11220;48.812;9.128;2023-04-06T02:52:39;17.20;61.90
22108;DHT22;11220;48.812;9.128;2023-04-06T02:55:05;17.20;61.90
22108;DHT22;11220;48.812;9.128;2023-04-06T02:57:32;17.20;61.90
22108;DHT22;11220;48.812;9.128;2023-04-06T02:59:58;17.20;61.90
22108;DHT22;11220;48.812;9.128;2023-04-06T03:02:23;17.20;61.90
22108;DHT22;11220;48.812;9.128;2023-04-06T03:04:49;17.20;61.90
22108;DHT22;11220;48.812;9.128;2023-04-06T03:07:14;17.20;61.90
22108;DHT22;11220;48.812;9.128;2023-04-06T03:09:40;17.20;61.90
22108;DHT22;11220;48.812;9.128;2023-04-06T03:12:06;17.20;61.90
22108;DHT22;11220;48.812;9.128;2023-04-06T03:14:31;17.10;61.80
22108;DHT22;11220;48.812;9.128;2023-04-06T03:16:57;17.20;61.90
22108;DHT22;11220;48.812;9.128;2023-04-06T03:19:22;17.10;62.00
22108;DHT22;11220;48.812;9.128;2023-04-06T03:21:48;17.10;61.90
22108;DHT22;11220;48.812;9.128;2023-04-06T03:24:13;17.10;61.90
22108;DHT22;11220;48.812;9.128;2023-04-06T03:26:39;17.10;61.90
22108;DHT22;11220;48.812;9.128;2023-04-06T03:29:05;17.10;61.90
22108;DHT22;11220;48.812;9.128;2023-04-06T03:31:30;17.00;61.90
22108;DHT22;11220;48.812;9.128;2023-04-06T03:33:56;17.10;61.90
22108;DHT22;11220;48.812;9.128;2023-04-06T03:36:21;17.10;61.90
22108;DHT22;11220;48.812;9.128;2023-04-06T03:38:47;17.00;61.80
22108;DHT22;11220;48.812;9.128;2023-04-06T03:41:12;17.00;61.80
22108;DHT22;11220;48.812;9.128;2023-04-06T03:43:38;17.00;61.80
22108;DHT22;11220;48.812;9.128;2023-04-06T03:46:03;17.00;61.90
22108;DHT22;11220;48.812;9.128;2023-04-06T03:48:29;17.10;61.90
22108;DHT22;11220;48.812;9.128;2023-04-06T03:50:55;17.00;61.90
22108;DHT22;11220;48.812;9.128;2023-04-06T03:53:20;17.30;62.00
22108;DHT22;11220;48.812;9.128;2023-04-06T03:55:46;17.00;61.90
22108;DHT22;11220;48.812;9.128;2023-04-06T03:58:12;17.00;61.80
22108;DHT22;11220;48.812;9.128;2023-04-06T04:00:37;17.00;61.80
22108;DHT22;11220;48.812;9.128;2023-04-06T04:03:03;17.00;61.80
22108;DHT22;11220;48.812;9.128;2023-04-06T04:05:28;17.00;61.80
22108;DHT22;11220;48.812;9.128;2023-04-06T04:07:54;17.00;61.80
22108;DHT22;11220;48.812;9.128;2023-04-06T04:10:20;17.00;61.80
22108;DHT22;11220;48.812;9.128;2023-04-06T04:12:46;16.90;61.80
22108;DHT22;11220;48.812;9.128;2023-04-06T04:15:11;16.90;61.80
22108;DHT22;11220;48.812;9.128;2023-04-06T04:17:36;16.90;61.80
22108;DHT22;11220;48.812;9.128;2023-04-06T04:20:02;16.90;61.80
22108;DHT22;11220;48.812;9.128;2023-04-06T04:22:28;16.90;61.80
22108;DHT22;11220;48.812;9.128;2023-04-06T04:24:53;16.90;61.80
22108;DHT22;11220;48.812;9.128;2023-04-06T04:27:19;16.90;61.80
22108;DHT22;11220;48.812;9.128;2023-04-06T04:29:45;16.90;61.80
22108;DHT22;11220;48.812;9.128;2023-04-06T04:32:11;16.90;61.80
22108;DHT22;11220;48.812;9.128;2023-04-06T04:34:36;16.90;61.80
22108;DHT22;11220;48.812;9.128;2023-04-06T04:37:05;16.90;61.80
22108;DHT22;11220;48.812;9.128;2023-04-06T04:39:31;16.90;61.80
22108;DHT22;11220;48.812;9.128;2023-04-06T04:41:56;16.90;61.90
22108;DHT22;11220;48.812;9.128;2023-04-06T04:44:22;16.90;61.80
22108;DHT22;11220;48.812;9.128;2023-04-06T04:46:47;16.80;61.70
22108;DHT22;11220;48.812;9.128;2023-04-06T04:49:13;16.90;61.70
22108;DHT22;11220;48.812;9.128;2023-04-06T04:51:38;16.80;61.60
22108;DHT22;11220;48.812;9.128;2023-04-06T04:54:04;16.80;61.60
22108;DHT22;11220;48.812;9.128;2023-04-06T04:56:29;16.80;61.60
22108;DHT22;11220;48.812;9.128;2023-04-06T04:58:55;16.80;61.60
22108;DHT22;11220;48.812;9.128;2023-04-06T05:01:20;16.90;61.50
22108;DHT22;11220;48.812;9.128;2023-04-06T05:03:46;16.90;61.50
22108;DHT22;11220;48.812;9.128;2023-04-06T05:06:11;16.90;61.60
22108;DHT22;11220;48.812;9.128;2023-04-06T05:08:37;16.90;61.60
22108;DHT22;11220;48.812;9.128;2023-04-06T05:11:02;16.90;61.60
22108;DHT22;11220;48.812;9.128;2023-04-06T05:13:30;16.90;61.60
22108;DHT22;11220;48.812;9.128;2023-04-06T05:15:56;16.90;61.70
22108;DHT22;11220;48.812;9.128;2023-04-06T05:18:21;17.00;61.70
22108;DHT22;11220;48.812;9.128;2023-04-06T05:20:47;17.00;61.70
22108;DHT22;11220;48.812;9.128;2023-04-06T05:23:12;17.00;61.80
22108;DHT22;11220;48.812;9.128;2023-04-06T05:25:38;17.00;61.70
22108;DHT22;11220;48.812;9.128;2023-04-06T05:28:03;17.00;62.00
22108;DHT22;11220;48.812;9.128;2023-04-06T05:30:29;17.00;62.00
22108;DHT22;11220;48.812;9.128;2023-04-06T05:32:55;17.10;62.20
22108;DHT22;11220;48.812;9.128;2023-04-06T05:35:21;17.10;62.30
22108;DHT22;11220;48.812;9.128;2023-04-06T05:37:46;17.20;62.30
22108;DHT22;11220;48.812;9.128;2023-04-06T05:40:12;17.20;62.30
22108;DHT22;11220;48.812;9.128;2023-04-06T05:42:38;17.20;62.30
22108;DHT22;11220;48.812;9.128;2023-04-06T05:45:08;17.20;62.20
22108;DHT22;11220;48.812;9.128;2023-04-06T05:47:34;17.30;62.30
22108;DHT22;11220;48.812;9.128;2023-04-06T05:50:00;17.30;62.20
22108;DHT22;11220;48.812;9.128;2023-04-06T05:52:25;17.30;62.20
22108;DHT22;11220;48.812;9.128;2023-04-06T05:54:51;19.40;63.50
22108;DHT22;11220;48.812;9.128;2023-04-06T05:57:17;17.30;62.20
22108;DHT22;11220;48.812;9.128;2023-04-06T05:59:43;17.40;62.20
22108;DHT22;11220;48.812;9.128;2023-04-06T06:02:08;17.40;62.20
22108;DHT22;11220;48.812;9.128;2023-04-06T06:04:34;17.50;62.10
22108;DHT22;11220;48.812;9.128;2023-04-06T06:07:00;17.50;62.00
22108;DHT22;11220;48.812;9.128;2023-04-06T06:09:26;17.50;62.10
22108;DHT22;11220;48.812;9.128;2023-04-06T06:11:51;17.50;62.00
22108;DHT22;11220;48.812;9.128;2023-04-06T06:14:17;17.60;61.90
22108;DHT22;11220;48.812;9.128;2023-04-06T06:16:42;17.60;61.90
22108;DHT22;11220;48.812;9.128;2023-04-06T06:19:08;17.60;61.90
22108;DHT22;11220;48.812;9.128;2023-04-06T06:21:34;17.60;61.90
22108;DHT22;11220;48.812;9.128;2023-04-06T06:23:59;17.60;61.80
22108;DHT22;11220;48.812;9.128;2023-04-06T06:26:25;17.60;61.70
22108;DHT22;11220;48.812;9.128;2023-04-06T06:28:50;17.60;61.60
22108;DHT22;11220;48.812;9.128;2023-04-06T06:31:16;17.70;62.60
22108;DHT22;11220;48.812;9.128;2023-04-06T06:33:42;17.70;61.70
22108;DHT22;11220;48.812;9.128;2023-04-06T06:36:07;17.70;61.60
22108;DHT22;11220;48.812;9.128;2023-04-06T06:38:33;17.70;61.50
22108;DHT22;11220;48.812;9.128;2023-04-06T06:40:58;17.70;61.50
22108;DHT22;11220;48.812;9.128;2023-04-06T06:43:24;17.70;61.50
22108;DHT22;11220;48.812;9.128;2023-04-06T06:45:49;17.70;61.40
22108;DHT22;11220;48.812;9.128;2023-04-06T06:48:15;17.70;61.40
22108;DHT22;11220;48.812;9.128;2023-04-06T06:50:41;17.70;61.50
22108;DHT22;11220;48.812;9.128;2023-04-06T06:53:06;17.80;61.50
22108;DHT22;11220;48.812;9.128;2023-04-06T06:55:32;17.70;61.40
22108;DHT22;11220;48.812;9.128;2023-04-06T06:57:57;17.70;61.40
22108;DHT22;11220;48.812;9.128;2023-04-06T07:00:23;17.70;61.40
22108;DHT22;11220;48.812;9.128;2023-04-06T07:02:48;17.80;61.50
22108;DHT22;11220;48.812;9.128;2023-04-06T07:05:15;17.80;61.50
22108;DHT22;11220;48.812;9.128;2023-04-06T07:07:41;17.80;61.50
22108;DHT22;11220;48.812;9.128;2023-04-06T07:10:07;17.80;61.50
22108;DHT22;11220;48.812;9.128;2023-04-06T07:12:33;17.80;61.60
22108;DHT22;11220;48.812;9.128;2023-04-06T07:14:58;17.90;61.90
22108;DHT22;11220;48.812;9.128;2023-04-06T07:17:24;17.90;62.10
22108;DHT22;11220;48.812;9.128;2023-04-06T07:19:49;17.90;62.30
22108;DHT22;11220;48.812;9.128;2023-04-06T07:22:15;17.90;62.40
22108;DHT22;11220;48.812;9.128;2023-04-06T07:24:40;17.90;62.50
22108;DHT22;11220;48.812;9.128;2023-04-06T07:27:06;17.90;62.50
22108;DHT22;11220;48.812;9.128;2023-04-06T07:29:32;17.90;62.50
22108;DHT22;11220;48.812;9.128;2023-04-06T07:31:57;18.00;62.60
22108;DHT22;11220;48.812;9.128;2023-04-06T07:34:23;18.00;62.60
22108;DHT22;11220;48.812;9.128;2023-04-06T07:36:49;18.00;62.60
22108;DHT22;11220;48.812;9.128;2023-04-06T07:39:14;18.00;62.60
22108;DHT22;11220;48.812;9.128;2023-04-06T07:41:40;18.00;62.60
22108;DHT22;11220;48.812;9.128;2023-04-06T07:44:06;18.00;62.60
22108;DHT22;11220;48.812;9.128;2023-04-06T07:46:32;18.00;62.50
22108;DHT22;11220;48.812;9.128;2023-04-06T07:48:59;18.10;62.60
22108;DHT22;11220;48.812;9.128;2023-04-06T07:51:25;18.10;62.60
22108;DHT22;11220;48.812;9.128;2023-04-06T07:53:51;18.10;62.70
22108;DHT22;11220;48.812;9.128;2023-04-06T07:56:17;18.10;62.70
22108;DHT22;11220;48.812;9.128;2023-04-06T07:58:43;18.10;62.60
22108;DHT22;11220;48.812;9.128;2023-04-06T08:01:08;18.10;62.60
22108;DHT22;11220;48.812;9.128;2023-04-06T08:03:35;18.10;62.50
22108;DHT22;11220;48.812;9.128;2023-04-06T08:06:01;18.10;62.50
22108;DHT22;11220;48.812;9.128;2023-04-06T08:08:28;18.10;62.30
22108;DHT22;11220;48.812;9.128;2023-04-06T08:10:53;19.00;62.70
22108;DHT22;11220;48.812;9.128;2023-04-06T08:13:19;18.10;62.00
22108;DHT22;11220;48.812;9.128;2023-04-06T08:15:44;18.10;62.00
22108;DHT22;11220;48.812;9.128;2023-04-06T08:18:10;18.10;62.00
22108;DHT22;11220;48.812;9.128;2023-04-06T08:20:36;18.10;61.80
22108;DHT22;11220;48.812;9.128;2023-04-06T08:23:01;18.10;61.80
22108;DHT22;11220;48.812;9.128;2023-04-06T08:25:27;18.10;61.70
22108;DHT22;11220;48.812;9.128;2023-04-06T08:27:53;19.20;62.40
22108;DHT22;11220;48.812;9.128;2023-04-06T08:30:18;18.10;61.70
22108;DHT22;11220;48.812;9.128;2023-04-06T08:32:45;18.10;61.70
22108;DHT22;11220;48.812;9.128;2023-04-06T08:35:10;18.10;61.70
22108;DHT22;11220;48.812;9.128;2023-04-06T08:37:36;18.10;61.60
22108;DHT22;11220;48.812;9.128;2023-04-06T08:40:01;18.10;61.70
22108;DHT22;11220;48.812;9.128;2023-04-06T08:42:32;18.10;61.70
22108;DHT22;11220;48.812;9.128;2023-04-06T08:44:58;18.10;61.70
22108;DHT22;11220;48.812;9.128;2023-04-06T08:47:24;18.10;61.90
22108;DHT22;11220;48.812;9.128;2023-04-06T08:49:51;18.10;61.90
22108;DHT22;11220;48.812;9.128;2023-04-06T08:52:18;18.10;61.80
22108;DHT22;11220;48.812;9.128;2023-04-06T08:54:44;18.10;61.90
22108;DHT22;11220;48.812;9.128;2023-04-06T08:57:10;18.10;62.00
22108;DHT22;11220;48.812;9.128;2023-04-06T08:59:36;18.10;62.00
22108;DHT22;11220;48.812;9.128;2023-04-06T09:02:03;18.10;61.90
22108;DHT22;11220;48.812;9.128;2023-04-06T09:04:31;18.20;62.00
22108;DHT22;11220;48.812;9.128;2023-04-06T09:06:57;18.50;62.30
22108;DHT22;11220;48.812;9.128;2023-04-06T09:09:23;18.10;62.00
22108;DHT22;11220;48.812;9.128;2023-04-06T09:11:51;18.10;62.00
22108;DHT22;11220;48.812;9.128;2023-04-06T09:14:32;18.20;62.10
22108;DHT22;11220;48.812;9.128;2023-04-06T09:16:58;18.20;62.20
22108;DHT22;11220;48.812;9.128;2023-04-06T09:19:23;18.20;62.20
22108;DHT22;11220;48.812;9.128;2023-04-06T09:21:49;18.20;62.20
22108;DHT22;11220;48.812;9.128;2023-04-06T09:24:14;18.20;62.20
22108;DHT22;11220;48.812;9.128;2023-04-06T09:26:46;18.20;62.20
22108;DHT22;11220;48.812;9.128;2023-04-06T09:29:22;18.20;62.30
22108;DHT22;11220;48.812;9.128;2023-04-06T09:31:48;18.20;62.30
22108;DHT22;11220;48.812;9.128;2023-04-06T09:34:23;18.20;62.30
22108;DHT22;11220;48.812;9.128;2023-04-06T09:36:49;18.20;62.30
22108;DHT22;11220;48.812;9.128;2023-04-06T09:39:20;18.20;62.30
22108;DHT22;11220;48.812;9.128;2023-04-06T09:41:50;18.20;62.30
22108;DHT22;11220;48.812;9.128;2023-04-06T09:44:15;18.30;62.40
22108;DHT22;11220;48.812;9.128;2023-04-06T09:46:42;18.20;62.30
22108;DHT22;11220;48.812;9.128;2023-04-06T09:49:08;18.20;62.30
22108;DHT22;11220;48.812;9.128;2023-04-06T09:51:39;18.20;62.40
22108;DHT22;11220;48.812;9.128;2023-04-06T09:54:06;18.20;62.30
22108;DHT22;11220;48.812;9.128;2023-04-06T09:56:49;18.30;62.40
22108;DHT22;11220;48.812;9.128;2023-04-06T10:02:34;18.30;62.50
22108;DHT22;11220;48.812;9.128;2023-04-06T10:05:17;18.30;62.40
22108;DHT22;11220;48.812;9.128;2023-04-06T10:07:44;18.30;62.50
22108;DHT22;11220;48.812;9.128;2023-04-06T10:10:11;18.30;62.40
22108;DHT22;11220;48.812;9.128;2023-04-06T10:12:40;18.40;62.50
22108;DHT22;11220;48.812;9.128;2023-04-06T10:15:06;18.30;62.40
22108;DHT22;11220;48.812;9.128;2023-04-06T10:17:32;18.30;62.40
22108;DHT22;11220;48.812;9.128;2023-04-06T10:19:59;18.30;62.40
22108;DHT22;11220;48.812;9.128;2023-04-06T10:22:41;18.30;62.40
22108;DHT22;11220;48.812;9.128;2023-04-06T10:25:08;18.30;62.40
22108;DHT22;11220;48.812;9.128;2023-04-06T10:27:34;18.30;62.40
22108;DHT22;11220;48.812;9.128;2023-04-06T10:30:02;18.30;62.40
22108;DHT22;11220;48.812;9.128;2023-04-06T10:32:38;18.30;62.40
22108;DHT22;11220;48.812;9.128;2023-04-06T10:35:11;18.40;62.40
22108;DHT22;11220;48.812;9.128;2023-04-06T10:37:51;18.40;62.40
22108;DHT22;11220;48.812;9.128;2023-04-06T10:40:25;18.60;62.50
22108;DHT22;11220;48.812;9.128;2023-04-06T10:42:52;18.40;62.40
22108;DHT22;11220;48.812;9.128;2023-04-06T10:45:23;18.40;62.30
22108;DHT22;11220;48.812;9.128;2023-04-06T10:47:52;18.40;62.30
22108;DHT22;11220;48.812;9.128;2023-04-06T10:50:18;18.50;62.40
22108;DHT22;11220;48.812;9.128;2023-04-06T10:52:45;18.40;62.30
22108;DHT22;11220;48.812;9.128;2023-04-06T10:55:13;18.40;62.30
22108;DHT22;11220;48.812;9.128;2023-04-06T10:57:39;18.50;62.30
22108;DHT22;11220;48.812;9.128;2023-04-06T11:00:05;18.50;62.30
22108;DHT22;11220;48.812;9.128;2023-04-06T11:02:31;18.50;62.30
22108;DHT22;11220;48.812;9.128;2023-04-06T11:04:58;18.50;62.30
22108;DHT22;11220;48.812;9.128;2023-04-06T11:07:27;18.50;62.30
22108;DHT22;11220;48.812;9.128;2023-04-06T11:09:54;18.50;62.30
22108;DHT22;11220;48.812;9.128;2023-04-06T11:12:24;18.60;62.30
22108;DHT22;11220;48.812;9.128;2023-04-06T11:14:53;18.50;62.30
22108;DHT22;11220;48.812;9.128;2023-04-06T11:17:26;18.60;62.30
22108;DHT22;11220;48.812;9.128;2023-04-06T11:19:51;18.60;62.30
22108;DHT22;11220;48.812;9.128;2023-04-06T11:22:17;18.60;62.30
22108;DHT22;11220;48.812;9.128;2023-04-06T11:24:42;18.60;62.20
22108;DHT22;11220;48.812;9.128;2023-04-06T11:27:08;18.60;62.20
22108;DHT22;11220;48.812;9.128;2023-04-06T11:29:34;18.60;62.20
22108;DHT22;11220;48.812;9.128;2023-04-06T11:32:04;18.70;62.30
22108;DHT22;11220;48.812;9.128;2023-04-06T11:34:33;18.70;62.20
22108;DHT22;11220;48.812;9.128;2023-04-06T11:37:00;18.70;62.30
22108;DHT22;11220;48.812;9.128;2023-04-06T11:39:28;18.80;62.30
22108;DHT22;11220;48.812;9.128;2023-04-06T11:41:57;18.70;62.20
22108;DHT22;11220;48.812;9.128;2023-04-06T11:44:34;18.70;62.20
22108;DHT22;11220;48.812;9.128;2023-04-06T11:47:04;18.70;62.30
22108;DHT22;11220;48.812;9.128;2023-04-06T11:49:31;18.80;62.30
22108;DHT22;11220;48.812;9.128;2023-04-06T11:51:59;18.80;62.30
22108;DHT22;11220;48.812;9.128;2023-04-06T11:54:37;18.80;62.30
22108;DHT22;11220;48.812;9.128;2023-04-06T11:57:03;18.80;62.30
22108;DHT22;11220;48.812;9.128;2023-04-06T11:59:29;18.90;62.40
22108;DHT22;11220;48.812;9.128;2023-04-06T12:01:56;18.90;62.40
22108;DHT22;11220;48.812;9.128;2023-04-06T12:04:22;18.90;62.30
22108;DHT22;11220;48.812;9.128;2023-04-06T12:06:48;18.90;62.40
22108;DHT22;11220;48.812;9.128;2023-04-06T12:09:13;18.90;62.30
22108;DHT22;11220;48.812;9.128;2023-04-06T12:11:39;18.90;62.30
22108;DHT22;11220;48.812;9.128;2023-04-06T12:14:06;18.90;62.30
22108;DHT22;11220;48.812;9.128;2023-04-06T12:16:33;19.00;62.50
22108;DHT22;11220;48.812;9.128;2023-04-06T12:18:58;19.00;62.50
22108;DHT22;11220;48.812;9.128;2023-04-06T12:21:26;19.00;62.50
22108;DHT22;11220;48.812;9.128;2023-04-06T12:23:52;19.10;62.50
22108;DHT22;11220;48.812;9.128;2023-04-06T12:26:17;19.10;62.60
22108;DHT22;11220;48.812;9.128;2023-04-06T12:28:43;19.10;62.60
22108;DHT22;11220;48.812;9.128;2023-04-06T12:31:17;19.10;62.60
22108;DHT22;11220;48.812;9.128;2023-04-06T12:33:45;19.20;62.80
22108;DHT22;11220;48.812;9.128;2023-04-06T12:36:12;19.20;62.90
22108;DHT22;11220;48.812;9.128;2023-04-06T12:38:39;19.20;63.00
22108;DHT22;11220;48.812;9.128;2023-04-06T12:41:06;19.20;63.00
22108;DHT22;11220;48.812;9.128;2023-04-06T12:43:32;19.20;63.00
22108;DHT22;11220;48.812;9.128;2023-04-06T12:45:57;19.30;63.30
22108;DHT22;11220;48.812;9.128;2023-04-06T12:48:23;19.30;63.20
22108;DHT22;11220;48.812;9.128;2023-04-06T12:50:57;19.30;63.40
22108;DHT22;11220;48.812;9.128;2023-04-06T12:53:23;19.40;63.50
22108;DHT22;11220;48.812;9.128;2023-04-06T12:55:48;19.40;63.60
22108;DHT22;11220;48.812;9.128;2023-04-06T12:58:14;19.50;63.60
22108;DHT22;11220;48.812;9.128;2023-04-06T13:00:40;19.50;63.50
22108;DHT22;11220;48.812;9.128;2023-04-06T13:03:06;19.50;63.40
22108;DHT22;11220;48.812;9.128;2023-04-06T13:05:31;19.60;63.40
22108;DHT22;11220;48.812;9.128;2023-04-06T13:07:57;19.60;63.40
22108;DHT22;11220;48.812;9.128;2023-04-06T13:10:22;19.60;63.40
22108;DHT22;11220;48.812;9.128;2023-04-06T13:12:48;19.60;63.50
22108;DHT22;11220;48.812;9.128;2023-04-06T13:15:14;19.70;63.70
22108;DHT22;11220;48.812;9.128;2023-04-06T13:17:40;19.70;63.40
22108;DHT22;11220;48.812;9.128;2023-04-06T13:20:06;19.70;63.20
22108;DHT22;11220;48.812;9.128;2023-04-06T13:22:32;19.70;62.80
22108;DHT22;11220;48.812;9.128;2023-04-06T13:24:57;20.30;63.20
22108;DHT22;11220;48.812;9.128;2023-04-06T13:27:23;19.80;62.90
22108;DHT22;11220;48.812;9.128;2023-04-06T13:29:48;19.90;63.00
22108;DHT22;11220;48.812;9.128;2023-04-06T13:32:14;19.80;62.70
22108;DHT22;11220;48.812;9.128;2023-04-06T13:34:39;19.90;62.20
22108;DHT22;11220;48.812;9.128;2023-04-06T13:37:11;19.90;61.50
22108;DHT22;11220;48.812;9.128;2023-04-06T13:39:37;20.00;60.90
22108;DHT22;11220;48.812;9.128;2023-04-06T13:42:02;20.00;60.60
22108;DHT22;11220;48.812;9.128;2023-04-06T13:44:28;20.10;60.40
22108;DHT22;11220;48.812;9.128;2023-04-06T13:46:54;20.10;60.00
22108;DHT22;11220;48.812;9.128;2023-04-06T13:49:19;21.20;60.50
22108;DHT22;11220;48.812;9.128;2023-04-06T13:51:45;20.20;59.80
22108;DHT22;11220;48.812;9.128;2023-04-06T13:54:10;20.20;59.60
22108;DHT22;11220;48.812;9.128;2023-04-06T13:56:36;20.30;59.60
22108;DHT22;11220;48.812;9.128;2023-04-06T13:59:02;20.30;59.60
22108;DHT22;11220;48.812;9.128;2023-04-06T14:01:28;20.40;59.70
22108;DHT22;11220;48.812;9.128;2023-04-06T14:03:54;20.40;59.60
22108;DHT22;11220;48.812;9.128;2023-04-06T14:06:19;20.40;59.50
22108;DHT22;11220;48.812;9.128;2023-04-06T14:08:45;20.40;59.40
22108;DHT22;11220;48.812;9.128;2023-04-06T14:11:12;20.50;59.40
22108;DHT22;11220;48.812;9.128;2023-04-06T14:13:38;20.60;59.40
22108;DHT22;11220;48.812;9.128;2023-04-06T14:16:04;20.60;59.30
22108;DHT22;11220;48.812;9.128;2023-04-06T14:18:30;20.60;59.20
22108;DHT22;11220;48.812;9.128;2023-04-06T14:20:57;20.60;59.20
22108;DHT22;11220;48.812;9.128;2023-04-06T14:23:23;20.60;59.20
22108;DHT22;11220;48.812;9.128;2023-04-06T14:25:51;20.50;59.20
22108;DHT22;11220;48.812;9.128;2023-04-06T14:28:16;22.40;60.20
22108;DHT22;11220;48.812;9.128;2023-04-06T14:30:43;20.50;59.30
22108;DHT22;11220;48.812;9.128;2023-04-06T14:33:08;20.50;59.40
22108;DHT22;11220;48.812;9.128;2023-04-06T14:35:38;20.40;59.40
22108;DHT22;11220;48.812;9.128;2023-04-06T14:38:03;20.40;59.40
22108;DHT22;11220;48.812;9.128;2023-04-06T14:40:29;20.50;59.40
22108;DHT22;11220;48.812;9.128;2023-04-06T14:42:54;20.50;59.40
22108;DHT22;11220;48.812;9.128;2023-04-06T14:45:21;20.60;60.00
22108;DHT22;11220;48.812;9.128;2023-04-06T14:47:47;20.60;59.30
22108;DHT22;11220;48.812;9.128;2023-04-06T14:50:13;20.60;59.30
22108;DHT22;11220;48.812;9.128;2023-04-06T14:52:39;20.60;59.20
22108;DHT22;11220;48.812;9.128;2023-04-06T14:55:05;20.70;59.20
22108;DHT22;11220;48.812;9.128;2023-04-06T14:57:30;20.70;59.20
22108;DHT22;11220;48.812;9.128;2023-04-06T14:59:57;20.70;59.20
22108;DHT22;11220;48.812;9.128;2023-04-06T15:02:23;20.70;59.20
22108;DHT22;11220;48.812;9.128;2023-04-06T15:04:48;20.80;59.20
22108;DHT22;11220;48.812;9.128;2023-04-06T15:07:14;20.80;59.10
22108;DHT22;11220;48.812;9.128;2023-04-06T15:09:40;20.80;59.10
22108;DHT22;11220;48.812;9.128;2023-04-06T15:12:05;20.80;59.20
22108;DHT22;11220;48.812;9.128;2023-04-06T15:14:31;20.70;59.00
22108;DHT22;11220;48.812;9.128;2023-04-06T15:16:56;20.70;58.70
22108;DHT22;11220;48.812;9.128;2023-04-06T15:19:22;20.60;58.40
22108;DHT22;11220;48.812;9.128;2023-04-06T15:21:47;20.90;58.30
22108;DHT22;11220;48.812;9.128;2023-04-06T15:24:13;21.20;58.10
22108;DHT22;11220;48.812;9.128;2023-04-06T15:26:38;20.50;57.60